sensor_id;sensor_type;location;lat;lon;timestamp;temperature;humidity
5384;DHT22;2715;53.448;10.078;2022-09-21T00:00:44;22.70;49.90
5384;DHT22;2715;53.448;10.078;2022-09-21T00:03:10;22.70;50.00
5384;DHT22;2715;53.448;10.078;2022-09-21T00:05:38;22.70;50.00
5384;DHT22;2715;53.448;10.078;2022-09-21T00:08:06;22.70;50.00
5384;DHT22;2715;53.448;10.078;2022-09-21T00:10:33;22.70;50.00
5384;DHT22;2715;53.448;10.078;2022-09-21T00:13:00;22.60;49.90
5384;DHT22;2715;53.448;10.078;2022-09-21T00:15:28;22.60;50.00
5384;DHT22;2715;53.448;10.078;2022-09-21T00:17:55;22.60;50.00
5384;DHT22;2715;53.448;10.078;2022-09-21T00:20:22;22.60;50.00
5384;DHT22;2715;53.448;10.078;2022-09-21T00:22:50;22.60;50.00
5384;DHT22;2715;53.448;10.078;2022-09-21T00:25:17;22.60;50.00
5384;DHT22;2715;53.448;10.078;2022-09-21T00:27:45;22.60;50.00
5384;DHT22;2715;53.448;10.078;2022-09-21T00:30:15;22.60;50.00
5384;DHT22;2715;53.448;10.078;2022-09-21T00:32:42;22.60;50.00
5384;DHT22;2715;53.448;10.078;2022-09-21T00:35:09;22.50;50.00
5384;DHT22;2715;53.448;10.078;2022-09-21T00:37:36;22.50;50.00
5384;DHT22;2715;53.448;10.078;2022-09-21T00:40:04;22.50;50.00
5384;DHT22;2715;53.448;10.078;2022-09-21T00:42:32;22.50;50.00
5384;DHT22;2715;53.448;10.078;2022-09-21T00:44:58;22.50;50.00
5384;DHT22;2715;53.448;10.078;2022-09-21T00:47:26;22.50;50.00
5384;DHT22;2715;53.448;10.078;2022-09-21T00:49:54;22.50;50.00
5384;DHT22;2715;53.448;10.078;2022-09-21T00:52:21;22.50;50.00
5384;DHT22;2715;53.448;10.078;2022-09-21T00:54:50;22.50;50.10
5384;DHT22;2715;53.448;10.078;2022-09-21T00:57:19;22.50;50.00
5384;DHT22;2715;53.448;10.078;2022-09-21T00:59:47;22.50;50.10
5384;DHT22;2715;53.448;10.078;2022-09-21T01:02:14;22.40;50.00
5384;DHT22;2715;53.448;10.078;2022-09-21T01:04:41;22.50;50.10
5384;DHT22;2715;53.448;10.078;2022-09-21T01:07:09;22.40;50.00
5384;DHT22;2715;53.448;10.078;2022-09-21T01:09:37;22.40;50.00
5384;DHT22;2715;53.448;10.078;2022-09-21T01:12:07;22.40;50.00
5384;DHT22;2715;53.448;10.078;2022-09-21T01:14:46;22.40;50.10
5384;DHT22;2715;53.448;10.078;2022-09-21T01:17:17;22.40;50.10
5384;DHT22;2715;53.448;10.078;2022-09-21T01:22:42;22.40;50.00
5384;DHT22;2715;53.448;10.078;2022-09-21T01:25:14;22.40;50.10
5384;DHT22;2715;53.448;10.078;2022-09-21T01:27:47;22.30;50.00
5384;DHT22;2715;53.448;10.078;2022-09-21T01:30:19;22.30;50.00
5384;DHT22;2715;53.448;10.078;2022-09-21T01:32:47;22.30;50.00
5384;DHT22;2715;53.448;10.078;2022-09-21T01:35:17;22.30;50.00
5384;DHT22;2715;53.448;10.078;2022-09-21T01:37:46;22.30;50.00
5384;DHT22;2715;53.448;10.078;2022-09-21T01:40:14;22.30;50.00
5384;DHT22;2715;53.448;10.078;2022-09-21T01:42:43;22.30;50.10
5384;DHT22;2715;53.448;10.078;2022-09-21T01:45:11;22.20;50.00
5384;DHT22;2715;53.448;10.078;2022-09-21T01:47:42;22.30;50.10
5384;DHT22;2715;53.448;10.078;2022-09-21T01:50:12;22.30;50.10
5384;DHT22;2715;53.448;10.078;2022-09-21T01:52:41;22.30;50.10
5384;DHT22;2715;53.448;10.078;2022-09-21T01:55:09;22.30;50.10
5384;DHT22;2715;53.448;10.078;2022-09-21T01:57:39;22.20;50.00
5384;DHT22;2715;53.448;10.078;2022-09-21T02:00:07;22.20;50.00
5384;DHT22;2715;53.448;10.078;2022-09-21T02:02:35;22.20;50.00
5384;DHT22;2715;53.448;10.078;2022-09-21T02:05:04;22.20;50.00
5384;DHT22;2715;53.448;10.078;2022-09-21T02:07:31;22.20;50.00
5384;DHT22;2715;53.448;10.078;2022-09-21T02:09:59;22.30;50.10
5384;DHT22;2715;53.448;10.078;2022-09-21T02:12:25;22.20;50.00
5384;DHT22;2715;53.448;10.078;2022-09-21T02:14:52;22.30;50.00
5384;DHT22;2715;53.448;10.078;2022-09-21T02:17:24;22.20;50.00
5384;DHT22;2715;53.448;10.078;2022-09-21T02:19:54;22.20;50.00
5384;DHT22;2715;53.448;10.078;2022-09-21T02:22:25;22.20;50.00
5384;DHT22;2715;53.448;10.078;2022-09-21T02:24:54;22.20;50.00
5384;DHT22;2715;53.448;10.078;2022-09-21T02:27:25;22.20;50.00
5384;DHT22;2715;53.448;10.078;2022-09-21T02:29:55;22.20;50.00
5384;DHT22;2715;53.448;10.078;2022-09-21T02:32:27;22.20;50.00
5384;DHT22;2715;53.448;10.078;2022-09-21T02:35:02;22.20;50.00
5384;DHT22;2715;53.448;10.078;2022-09-21T02:37:36;22.20;50.00
5384;DHT22;2715;53.448;10.078;2022-09-21T02:40:06;22.20;50.00
5384;DHT22;2715;53.448;10.078;2022-09-21T02:42:36;22.30;50.00
5384;DHT22;2715;53.448;10.078;2022-09-21T02:45:06;22.30;50.00
5384;DHT22;2715;53.448;10.078;2022-09-21T02:47:35;22.20;50.00
5384;DHT22;2715;53.448;10.078;2022-09-21T02:50:06;22.20;49.90
5384;DHT22;2715;53.448;10.078;2022-09-21T02:52:36;22.20;49.90
5384;DHT22;2715;53.448;10.078;2022-09-21T02:55:05;22.20;49.90
5384;DHT22;2715;53.448;10.078;2022-09-21T02:57:32;22.20;49.90
5384;DHT22;2715;53.448;10.078;2022-09-21T02:59:58;22.20;49.90
5384;DHT22;2715;53.448;10.078;2022-09-21T03:02:34;22.20;49.90
5384;DHT22;2715;53.448;10.078;2022-09-21T03:05:01;22.20;50.00
5384;DHT22;2715;53.448;10.078;2022-09-21T03:07:27;22.20;50.00
5384;DHT22;2715;53.448;10.078;2022-09-21T03:09:55;22.20;50.00
5384;DHT22;2715;53.448;10.078;2022-09-21T03:12:22;22.20;50.00
5384;DHT22;2715;53.448;10.078;2022-09-21T03:14:49;22.20;50.00
5384;DHT22;2715;53.448;10.078;2022-09-21T03:17:16;22.20;50.00
5384;DHT22;2715;53.448;10.078;2022-09-21T03:19:42;22.20;50.00
5384;DHT22;2715;53.448;10.078;2022-09-21T03:22:09;22.10;50.00
5384;DHT22;2715;53.448;10.078;2022-09-21T03:24:35;22.10;50.00
5384;DHT22;2715;53.448;10.078;2022-09-21T03:27:12;22.10;50.00
5384;DHT22;2715;53.448;10.078;2022-09-21T03:29:39;22.10;50.00
5384;DHT22;2715;53.448;10.078;2022-09-21T03:32:06;22.20;50.10
5384;DHT22;2715;53.448;10.078;2022-09-21T03:34:33;22.10;50.00
5384;DHT22;2715;53.448;10.078;2022-09-21T03:37:00;22.10;50.60
5384;DHT22;2715;53.448;10.078;2022-09-21T03:39:27;22.10;50.00
5384;DHT22;2715;53.448;10.078;2022-09-21T03:41:53;22.10;50.00
5384;DHT22;2715;53.448;10.078;2022-09-21T03:44:22;22.10;50.00
5384;DHT22;2715;53.448;10.078;2022-09-21T03:46:49;22.10;50.00
5384;DHT22;2715;53.448;10.078;2022-09-21T03:49:15;22.10;49.90
5384;DHT22;2715;53.448;10.078;2022-09-21T03:51:42;22.10;49.90
5384;DHT22;2715;53.448;10.078;2022-09-21T03:54:09;22.10;49.90
5384;DHT22;2715;53.448;10.078;2022-09-21T03:56:35;22.10;49.90
5384;DHT22;2715;53.448;10.078;2022-09-21T03:59:02;22.10;49.90
5384;DHT22;2715;53.448;10.078;2022-09-21T04:01:30;22.10;49.90
5384;DHT22;2715;53.448;10.078;2022-09-21T04:03:57;22.10;49.80
5384;DHT22;2715;53.448;10.078;2022-09-21T04:06:23;22.00;49.70
5384;DHT22;2715;53.448;10.078;2022-09-21T04:08:50;22.00;49.70
5384;DHT22;2715;53.448;10.078;2022-09-21T04:11:19;22.10;49.70
5384;DHT22;2715;53.448;10.078;2022-09-21T04:13:48;22.10;49.70
5384;DHT22;2715;53.448;10.078;2022-09-21T04:16:15;22.00;49.50
5384;DHT22;2715;53.448;10.078;2022-09-21T04:18:44;22.00;49.50
5384;DHT22;2715;53.448;10.078;2022-09-21T04:21:14;22.00;49.50
5384;DHT22;2715;53.448;10.078;2022-09-21T04:23:41;22.10;49.50
5384;DHT22;2715;53.448;10.078;2022-09-21T04:26:16;22.00;49.40
5384;DHT22;2715;53.448;10.078;2022-09-21T04:28:44;22.00;49.40
5384;DHT22;2715;53.448;10.078;2022-09-21T04:31:10;22.00;49.30
5384;DHT22;2715;53.448;10.078;2022-09-21T04:33:37;22.00;49.30
5384;DHT22;2715;53.448;10.078;2022-09-21T04:36:06;22.00;49.30
5384;DHT22;2715;53.448;10.078;2022-09-21T04:38:32;22.00;49.30
5384;DHT22;2715;53.448;10.078;2022-09-21T04:40:59;22.00;49.30
5384;DHT22;2715;53.448;10.078;2022-09-21T04:43:26;22.00;49.20
5384;DHT22;2715;53.448;10.078;2022-09-21T04:45:52;22.00;49.20
5384;DHT22;2715;53.448;10.078;2022-09-21T04:48:19;22.00;49.20
5384;DHT22;2715;53.448;10.078;2022-09-21T04:50:47;22.00;49.20
5384;DHT22;2715;53.448;10.078;2022-09-21T04:53:15;22.00;49.20
5384;DHT22;2715;53.448;10.078;2022-09-21T04:55:41;22.00;49.30
5384;DHT22;2715;53.448;10.078;2022-09-21T04:58:09;22.00;49.50
5384;DHT22;2715;53.448;10.078;2022-09-21T05:00:36;21.90;49.70
5384;DHT22;2715;53.448;10.078;2022-09-21T05:03:03;22.00;49.90
5384;DHT22;2715;53.448;10.078;2022-09-21T05:05:29;22.00;50.00
5384;DHT22;2715;53.448;10.078;2022-09-21T05:07:57;22.00;49.90
5384;DHT22;2715;53.448;10.078;2022-09-21T05:10:25;22.00;49.80
5384;DHT22;2715;53.448;10.078;2022-09-21T05:12:51;22.00;49.70
5384;DHT22;2715;53.448;10.078;2022-09-21T06:55:05;22.00;48.50
5384;DHT22;2715;53.448;10.078;2022-09-21T06:57:32;22.00;48.50
5384;DHT22;2715;53.448;10.078;2022-09-21T06:59:58;22.00;48.50
5384;DHT22;2715;53.448;10.078;2022-09-21T07:02:25;22.00;48.50
5384;DHT22;2715;53.448;10.078;2022-09-21T07:04:52;22.00;48.50
5384;DHT22;2715;53.448;10.078;2022-09-21T07:07:19;22.00;48.50
5384;DHT22;2715;53.448;10.078;2022-09-21T07:09:45;22.00;48.50
5384;DHT22;2715;53.448;10.078;2022-09-21T07:12:13;21.90;48.40
5384;DHT22;2715;53.448;10.078;2022-09-21T07:14:40;22.00;48.50
5384;DHT22;2715;53.448;10.078;2022-09-21T07:17:08;21.90;48.40
5384;DHT22;2715;53.448;10.078;2022-09-21T07:19:35;21.90;48.40
5384;DHT22;2715;53.448;10.078;2022-09-21T07:22:02;21.90;48.40
5384;DHT22;2715;53.448;10.078;2022-09-21T07:24:28;21.90;48.40
5384;DHT22;2715;53.448;10.078;2022-09-21T07:26:56;22.00;48.60
5384;DHT22;2715;53.448;10.078;2022-09-21T07:29:24;21.90;48.00
5384;DHT22;2715;53.448;10.078;2022-09-21T07:31:51;21.90;48.50
5384;DHT22;2715;53.448;10.078;2022-09-21T07:34:17;21.90;48.50
5384;DHT22;2715;53.448;10.078;2022-09-21T07:36:44;21.90;48.50
5384;DHT22;2715;53.448;10.078;2022-09-21T07:39:11;21.90;48.50
5384;DHT22;2715;53.448;10.078;2022-09-21T07:41:38;21.90;48.60
5384;DHT22;2715;53.448;10.078;2022-09-21T07:44:04;21.90;48.60
5384;DHT22;2715;53.448;10.078;2022-09-21T07:46:32;21.90;48.60
5384;DHT22;2715;53.448;10.078;2022-09-21T07:49:00;21.90;48.60
5384;DHT22;2715;53.448;10.078;2022-09-21T07:51:28;21.90;48.60
5384;DHT22;2715;53.448;10.078;2022-09-21T07:53:56;21.90;48.70
5384;DHT22;2715;53.448;10.078;2022-09-21T07:56:23;21.90;48.70
5384;DHT22;2715;53.448;10.078;2022-09-21T07:58:49;22.00;48.80
5384;DHT22;2715;53.448;10.078;2022-09-21T08:01:31;22.00;48.70
5384;DHT22;2715;53.448;10.078;2022-09-21T08:03:59;22.00;48.80
5384;DHT22;2715;53.448;10.078;2022-09-21T08:06:27;22.00;48.80
5384;DHT22;2715;53.448;10.078;2022-09-21T08:08:54;22.00;48.80
5384;DHT22;2715;53.448;10.078;2022-09-21T08:11:21;22.00;48.80
5384;DHT22;2715;53.448;10.078;2022-09-21T08:13:50;22.00;48.80
5384;DHT22;2715;53.448;10.078;2022-09-21T08:16:17;22.00;48.70
5384;DHT22;2715;53.448;10.078;2022-09-21T08:18:44;22.00;48.80
5384;DHT22;2715;53.448;10.078;2022-09-21T08:21:12;22.00;48.80
5384;DHT22;2715;53.448;10.078;2022-09-21T08:23:39;22.00;48.80
5384;DHT22;2715;53.448;10.078;2022-09-21T08:26:07;22.00;48.80
5384;DHT22;2715;53.448;10.078;2022-09-21T08:28:35;22.00;48.80
5384;DHT22;2715;53.448;10.078;2022-09-21T08:31:03;22.00;48.80
5384;DHT22;2715;53.448;10.078;2022-09-21T08:33:30;22.00;48.80
5384;DHT22;2715;53.448;10.078;2022-09-21T08:35:58;22.00;48.80
5384;DHT22;2715;53.448;10.078;2022-09-21T08:38:26;22.00;48.80
5384;DHT22;2715;53.448;10.078;2022-09-21T08:40:53;22.10;49.00
5384;DHT22;2715;53.448;10.078;2022-09-21T08:43:21;22.10;48.90
5384;DHT22;2715;53.448;10.078;2022-09-21T08:45:54;22.10;48.90
5384;DHT22;2715;53.448;10.078;2022-09-21T08:48:23;22.10;48.90
5384;DHT22;2715;53.448;10.078;2022-09-21T08:50:52;22.10;49.00
5384;DHT22;2715;53.448;10.078;2022-09-21T08:53:21;22.10;48.90
5384;DHT22;2715;53.448;10.078;2022-09-21T08:55:50;22.10;49.00
5384;DHT22;2715;53.448;10.078;2022-09-21T08:58:20;22.10;49.00
5384;DHT22;2715;53.448;10.078;2022-09-21T09:00:47;22.10;49.00
5384;DHT22;2715;53.448;10.078;2022-09-21T09:03:17;22.10;48.90
5384;DHT22;2715;53.448;10.078;2022-09-21T09:05:48;22.10;49.00
5384;DHT22;2715;53.448;10.078;2022-09-21T09:11:04;22.20;49.00
5384;DHT22;2715;53.448;10.078;2022-09-21T09:13:42;22.20;49.00
5384;DHT22;2715;53.448;10.078;2022-09-21T09:16:13;22.20;49.10
5384;DHT22;2715;53.448;10.078;2022-09-21T09:18:42;22.20;49.00
5384;DHT22;2715;53.448;10.078;2022-09-21T09:21:11;22.20;49.00
5384;DHT22;2715;53.448;10.078;2022-09-21T09:23:40;22.30;49.10
5384;DHT22;2715;53.448;10.078;2022-09-21T09:26:09;22.30;49.10
5384;DHT22;2715;53.448;10.078;2022-09-21T09:28:40;22.30;49.10
5384;DHT22;2715;53.448;10.078;2022-09-21T09:31:10;22.30;49.10
5384;DHT22;2715;53.448;10.078;2022-09-21T09:33:42;22.40;49.30
5384;DHT22;2715;53.448;10.078;2022-09-21T09:36:10;22.40;49.30
5384;DHT22;2715;53.448;10.078;2022-09-21T09:38:38;22.40;49.30
5384;DHT22;2715;53.448;10.078;2022-09-21T09:41:11;22.40;49.20
5384;DHT22;2715;53.448;10.078;2022-09-21T09:43:46;22.40;49.20
5384;DHT22;2715;53.448;10.078;2022-09-21T09:46:15;22.40;49.20
5384;DHT22;2715;53.448;10.078;2022-09-21T09:49:01;22.50;49.30
5384;DHT22;2715;53.448;10.078;2022-09-21T09:51:31;22.50;49.30
5384;DHT22;2715;53.448;10.078;2022-09-21T09:54:04;22.40;49.20
5384;DHT22;2715;53.448;10.078;2022-09-21T09:56:32;22.50;49.30
5384;DHT22;2715;53.448;10.078;2022-09-21T09:58:59;22.50;49.30
5384;DHT22;2715;53.448;10.078;2022-09-21T10:01:38;22.50;49.30
5384;DHT22;2715;53.448;10.078;2022-09-21T10:04:06;22.60;49.40
5384;DHT22;2715;53.448;10.078;2022-09-21T10:06:33;22.60;49.40
5384;DHT22;2715;53.448;10.078;2022-09-21T10:09:00;22.60;49.40
5384;DHT22;2715;53.448;10.078;2022-09-21T10:11:44;22.60;49.40
5384;DHT22;2715;53.448;10.078;2022-09-21T10:14:13;22.70;49.40
5384;DHT22;2715;53.448;10.078;2022-09-21T10:16:42;22.70;49.40
5384;DHT22;2715;53.448;10.078;2022-09-21T10:19:12;22.70;49.40
5384;DHT22;2715;53.448;10.078;2022-09-21T10:21:39;22.70;49.40
5384;DHT22;2715;53.448;10.078;2022-09-21T10:24:13;22.70;49.40
5384;DHT22;2715;53.448;10.078;2022-09-21T10:26:41;22.80;49.50
5384;DHT22;2715;53.448;10.078;2022-09-21T10:29:17;22.80;49.50
5384;DHT22;2715;53.448;10.078;2022-09-21T10:31:53;22.80;49.50
5384;DHT22;2715;53.448;10.078;2022-09-21T10:34:20;22.80;49.80
5384;DHT22;2715;53.448;10.078;2022-09-21T10:39:33;22.90;49.40
5384;DHT22;2715;53.448;10.078;2022-09-21T10:42:01;22.90;49.30
5384;DHT22;2715;53.448;10.078;2022-09-21T10:44:32;23.00;49.40
5384;DHT22;2715;53.448;10.078;2022-09-21T10:47:00;23.00;49.40
5384;DHT22;2715;53.448;10.078;2022-09-21T10:49:29;23.10;49.40
5384;DHT22;2715;53.448;10.078;2022-09-21T10:51:57;23.10;49.40
5384;DHT22;2715;53.448;10.078;2022-09-21T10:54:25;23.10;49.50
5384;DHT22;2715;53.448;10.078;2022-09-21T10:56:53;23.20;49.50
5384;DHT22;2715;53.448;10.078;2022-09-21T10:59:21;23.20;49.50
5384;DHT22;2715;53.448;10.078;2022-09-21T11:01:50;23.20;49.50
5384;DHT22;2715;53.448;10.078;2022-09-21T11:04:18;23.20;49.40
5384;DHT22;2715;53.448;10.078;2022-09-21T11:06:46;23.20;49.50
5384;DHT22;2715;53.448;10.078;2022-09-21T11:09:15;23.30;49.60
5384;DHT22;2715;53.448;10.078;2022-09-21T11:11:45;23.30;49.50
5384;DHT22;2715;53.448;10.078;2022-09-21T11:14:17;23.30;49.60
5384;DHT22;2715;53.448;10.078;2022-09-21T11:16:46;23.30;49.50
5384;DHT22;2715;53.448;10.078;2022-09-21T11:19:19;23.40;49.60
5384;DHT22;2715;53.448;10.078;2022-09-21T11:21:49;23.40;49.60
5384;DHT22;2715;53.448;10.078;2022-09-21T11:24:19;23.40;49.60
5384;DHT22;2715;53.448;10.078;2022-09-21T11:26:49;23.50;49.70
5384;DHT22;2715;53.448;10.078;2022-09-21T11:29:19;23.50;49.60
5384;DHT22;2715;53.448;10.078;2022-09-21T11:31:51;23.50;49.60
5384;DHT22;2715;53.448;10.078;2022-09-21T11:34:27;23.50;49.70
5384;DHT22;2715;53.448;10.078;2022-09-21T11:37:00;23.60;49.60
5384;DHT22;2715;53.448;10.078;2022-09-21T11:39:39;23.60;49.70
5384;DHT22;2715;53.448;10.078;2022-09-21T11:42:14;23.60;49.60
5384;DHT22;2715;53.448;10.078;2022-09-21T11:44:48;23.60;49.70
5384;DHT22;2715;53.448;10.078;2022-09-21T11:47:21;23.60;49.70
5384;DHT22;2715;53.448;10.078;2022-09-21T11:52:40;23.70;49.70
5384;DHT22;2715;53.448;10.078;2022-09-21T11:55:17;23.70;49.70
5384;DHT22;2715;53.448;10.078;2022-09-21T11:57:48;23.70;49.70
5384;DHT22;2715;53.448;10.078;2022-09-21T12:00:19;23.80;49.70
5384;DHT22;2715;53.448;10.078;2022-09-21T12:05:35;23.80;49.70
5384;DHT22;2715;53.448;10.078;2022-09-21T12:08:13;23.90;49.80
5384;DHT22;2715;53.448;10.078;2022-09-21T12:10:45;23.90;49.80
5384;DHT22;2715;53.448;10.078;2022-09-21T12:13:20;23.90;49.80
5384;DHT22;2715;53.448;10.078;2022-09-21T12:15:52;23.90;49.80
5384;DHT22;2715;53.448;10.078;2022-09-21T12:18:23;24.00;49.90
5384;DHT22;2715;53.448;10.078;2022-09-21T12:20:53;24.00;49.90
5384;DHT22;2715;53.448;10.078;2022-09-21T12:23:25;24.00;49.80
5384;DHT22;2715;53.448;10.078;2022-09-21T12:25:55;24.00;49.80
5384;DHT22;2715;53.448;10.078;2022-09-21T12:28:23;24.00;49.80
5384;DHT22;2715;53.448;10.078;2022-09-21T12:30:52;24.10;49.80
5384;DHT22;2715;53.448;10.078;2022-09-21T12:33:22;24.10;49.80
5384;DHT22;2715;53.448;10.078;2022-09-21T12:35:52;24.10;49.80
5384;DHT22;2715;53.448;10.078;2022-09-21T12:38:23;24.10;49.80
5384;DHT22;2715;53.448;10.078;2022-09-21T12:40:54;24.10;49.70
5384;DHT22;2715;53.448;10.078;2022-09-21T12:43:26;24.20;49.90
5384;DHT22;2715;53.448;10.078;2022-09-21T12:45:55;24.20;49.90
5384;DHT22;2715;53.448;10.078;2022-09-21T12:48:26;24.20;49.80
5384;DHT22;2715;53.448;10.078;2022-09-21T12:50:55;24.20;49.80
5384;DHT22;2715;53.448;10.078;2022-09-21T12:53:24;24.30;49.90
5384;DHT22;2715;53.448;10.078;2022-09-21T12:55:54;24.30;49.90
5384;DHT22;2715;53.448;10.078;2022-09-21T12:58:29;24.30;49.90
5384;DHT22;2715;53.448;10.078;2022-09-21T13:01:03;24.30;49.80
5384;DHT22;2715;53.448;10.078;2022-09-21T13:03:31;24.40;49.90
5384;DHT22;2715;53.448;10.078;2022-09-21T13:06:10;24.40;49.90
5384;DHT22;2715;53.448;10.078;2022-09-21T13:08:41;24.40;49.70
5384;DHT22;2715;53.448;10.078;2022-09-21T13:11:10;24.50;49.90
5384;DHT22;2715;53.448;10.078;2022-09-21T13:13:37;24.50;49.90
5384;DHT22;2715;53.448;10.078;2022-09-21T13:16:05;24.50;49.80
5384;DHT22;2715;53.448;10.078;2022-09-21T13:18:33;24.50;49.80
5384;DHT22;2715;53.448;10.078;2022-09-21T13:21:01;24.50;49.80
5384;DHT22;2715;53.448;10.078;2022-09-21T13:23:39;24.60;49.90
5384;DHT22;2715;53.448;10.078;2022-09-21T13:26:07;24.60;50.00
5384;DHT22;2715;53.448;10.078;2022-09-21T13:31:39;24.60;49.80
5384;DHT22;2715;53.448;10.078;2022-09-21T13:42:44;24.80;49.80
5384;DHT22;2715;53.448;10.078;2022-09-21T13:48:03;24.80;49.70
5384;DHT22;2715;53.448;10.078;2022-09-21T13:50:38;24.80;49.70
5384;DHT22;2715;53.448;10.078;2022-09-21T13:53:07;24.80;49.70
5384;DHT22;2715;53.448;10.078;2022-09-21T13:55:47;24.80;49.80
5384;DHT22;2715;53.448;10.078;2022-09-21T13:58:17;24.80;49.70
5384;DHT22;2715;53.448;10.078;2022-09-21T14:00:49;24.90;49.80
5384;DHT22;2715;53.448;10.078;2022-09-21T14:03:19;24.90;49.80
5384;DHT22;2715;53.448;10.078;2022-09-21T14:05:47;24.90;50.30
5384;DHT22;2715;53.448;10.078;2022-09-21T14:08:17;24.90;49.80
5384;DHT22;2715;53.448;10.078;2022-09-21T14:10:48;24.90;49.80
5384;DHT22;2715;53.448;10.078;2022-09-21T14:13:22;24.90;49.70
5384;DHT22;2715;53.448;10.078;2022-09-21T14:15:50;25.00;49.80
5384;DHT22;2715;53.448;10.078;2022-09-21T14:18:33;25.00;49.80
5384;DHT22;2715;53.448;10.078;2022-09-21T14:21:06;25.00;49.80
5384;DHT22;2715;53.448;10.078;2022-09-21T14:23:33;25.00;49.90
5384;DHT22;2715;53.448;10.078;2022-09-21T14:26:01;25.00;49.80
5384;DHT22;2715;53.448;10.078;2022-09-21T14:28:31;25.00;49.90
5384;DHT22;2715;53.448;10.078;2022-09-21T14:31:00;25.00;49.90
5384;DHT22;2715;53.448;10.078;2022-09-21T14:33:31;25.00;49.80
5384;DHT22;2715;53.448;10.078;2022-09-21T14:35:59;25.00;49.80
5384;DHT22;2715;53.448;10.078;2022-09-21T14:38:28;25.00;49.80
5384;DHT22;2715;53.448;10.078;2022-09-21T14:40:56;25.00;49.80
5384;DHT22;2715;53.448;10.078;2022-09-21T14:43:25;25.00;49.90
5384;DHT22;2715;53.448;10.078;2022-09-21T14:46:00;25.00;49.90
5384;DHT22;2715;53.448;10.078;2022-09-21T14:48:32;25.00;49.90
5384;DHT22;2715;53.448;10.078;2022-09-21T14:51:04;25.00;49.80
5384;DHT22;2715;53.448;10.078;2022-09-21T14:53:44;25.00;49.90
5384;DHT22;2715;53.448;10.078;2022-09-21T14:59:02;25.00;49.90
5384;DHT22;2715;53.448;10.078;2022-09-21T15:01:36;25.00;49.90
5384;DHT22;2715;53.448;10.078;2022-09-21T15:04:11;25.00;49.90
5384;DHT22;2715;53.448;10.078;2022-09-21T15:06:43;25.00;49.90
5384;DHT22;2715;53.448;10.078;2022-09-21T15:09:35;25.00;49.80
5384;DHT22;2715;53.448;10.078;2022-09-21T15:12:26;25.00;49.70
5384;DHT22;2715;53.448;10.078;2022-09-21T15:14:55;25.10;49.70
5384;DHT22;2715;53.448;10.078;2022-09-21T15:17:26;25.10;49.60
5384;DHT22;2715;53.448;10.078;2022-09-21T15:19:57;25.10;49.60
5384;DHT22;2715;53.448;10.078;2022-09-21T15:22:25;25.10;49.60
5384;DHT22;2715;53.448;10.078;2022-09-21T15:24:53;25.10;49.50
5384;DHT22;2715;53.448;10.078;2022-09-21T15:27:21;25.10;49.50
5384;DHT22;2715;53.448;10.078;2022-09-21T15:29:48;25.10;49.50
5384;DHT22;2715;53.448;10.078;2022-09-21T15:32:22;25.10;49.50
5384;DHT22;2715;53.448;10.078;2022-09-21T15:34:57;25.10;49.50
5384;DHT22;2715;53.448;10.078;2022-09-21T15:37:25;25.10;49.50
5384;DHT22;2715;53.448;10.078;2022-09-21T15:39:58;25.10;49.50
5384;DHT22;2715;53.448;10.078;2022-09-21T15:42:25;25.10;49.50
5384;DHT22;2715;53.448;10.078;2022-09-21T15:44:53;25.10;49.50
5384;DHT22;2715;53.448;10.078;2022-09-21T15:47:30;25.10;49.50
5384;DHT22;2715;53.448;10.078;2022-09-21T15:49:59;25.10;49.50
5384;DHT22;2715;53.448;10.078;2022-09-21T15:52:28;25.10;49.50
5384;DHT22;2715;53.448;10.078;2022-09-21T15:54:57;25.10;49.50
5384;DHT22;2715;53.448;10.078;2022-09-21T15:57:29;25.00;49.40
5384;DHT22;2715;53.448;10.078;2022-09-21T15:59:57;25.10;49.50
5384;DHT22;2715;53.448;10.078;2022-09-21T16:02:25;25.10;49.40
5384;DHT22;2715;53.448;10.078;2022-09-21T16:04:53;25.00;49.40
5384;DHT22;2715;53.448;10.078;2022-09-21T16:07:28;25.00;49.30
5384;DHT22;2715;53.448;10.078;2022-09-21T16:09:55;25.00;49.40
5384;DHT22;2715;53.448;10.078;2022-09-21T16:12:38;25.00;49.30
5384;DHT22;2715;53.448;10.078;2022-09-21T16:15:07;25.00;49.40
5384;DHT22;2715;53.448;10.078;2022-09-21T16:17:36;25.00;50.30
5384;DHT22;2715;53.448;10.078;2022-09-21T16:20:05;25.10;50.40
5384;DHT22;2715;53.448;10.078;2022-09-21T16:22:38;25.10;50.40
5384;DHT22;2715;53.448;10.078;2022-09-21T16:25:12;25.10;50.40
5384;DHT22;2715;53.448;10.078;2022-09-21T16:27:47;25.10;50.20
5384;DHT22;2715;53.448;10.078;2022-09-21T16:32:56;25.00;50.10
5384;DHT22;2715;53.448;10.078;2022-09-21T16:35:25;25.00;50.00
5384;DHT22;2715;53.448;10.078;2022-09-21T16:37:54;25.00;50.00
5384;DHT22;2715;53.448;10.078;2022-09-21T16:40:23;25.00;50.00
5384;DHT22;2715;53.448;10.078;2022-09-21T16:42:49;25.00;49.90
5384;DHT22;2715;53.448;10.078;2022-09-21T16:45:18;25.00;49.90
5384;DHT22;2715;53.448;10.078;2022-09-21T16:47:45;25.00;49.80
5384;DHT22;2715;53.448;10.078;2022-09-21T16:50:12;25.00;50.00
5384;DHT22;2715;53.448;10.078;2022-09-21T16:52:43;25.00;49.90
5384;DHT22;2715;53.448;10.078;2022-09-21T16:55:14;25.00;49.90
5384;DHT22;2715;53.448;10.078;2022-09-21T16:57:40;25.00;49.80
5384;DHT22;2715;53.448;10.078;2022-09-21T17:00:08;25.00;49.80
5384;DHT22;2715;53.448;10.078;2022-09-21T17:02:35;25.00;49.80
5384;DHT22;2715;53.448;10.078;2022-09-21T17:05:09;25.00;49.80
5384;DHT22;2715;53.448;10.078;2022-09-21T17:07:37;25.00;49.80
5384;DHT22;2715;53.448;10.078;2022-09-21T17:10:08;25.00;49.80
5384;DHT22;2715;53.448;10.078;2022-09-21T17:12:37;25.00;49.80
5384;DHT22;2715;53.448;10.078;2022-09-21T17:15:04;25.00;49.70
5384;DHT22;2715;53.448;10.078;2022-09-21T17:17:32;25.00;49.70
5384;DHT22;2715;53.448;10.078;2022-09-21T17:20:01;25.00;49.70
5384;DHT22;2715;53.448;10.078;2022-09-21T17:22:32;25.00;49.70
5384;DHT22;2715;53.448;10.078;2022-09-21T17:24:59;25.00;49.70
5384;DHT22;2715;53.448;10.078;2022-09-21T17:27:25;25.00;49.70
5384;DHT22;2715;53.448;10.078;2022-09-21T17:29:54;24.90;49.60
5384;DHT22;2715;53.448;10.078;2022-09-21T17:32:22;24.90;49.60
5384;DHT22;2715;53.448;10.078;2022-09-21T17:34:50;24.90;49.70
5384;DHT22;2715;53.448;10.078;2022-09-21T17:37:20;24.90;49.60
5384;DHT22;2715;53.448;10.078;2022-09-21T17:39:48;24.90;49.60
5384;DHT22;2715;53.448;10.078;2022-09-21T17:42:16;24.90;49.60
5384;DHT22;2715;53.448;10.078;2022-09-21T17:47:39;24.90;49.60
5384;DHT22;2715;53.448;10.078;2022-09-21T17:50:20;24.90;49.60
5384;DHT22;2715;53.448;10.078;2022-09-21T17:52:48;24.90;49.60
5384;DHT22;2715;53.448;10.078;2022-09-21T17:55:33;24.90;49.60
5384;DHT22;2715;53.448;10.078;2022-09-21T17:58:18;24.90;49.70
5384;DHT22;2715;53.448;10.078;2022-09-21T18:00:51;24.90;49.70
5384;DHT22;2715;53.448;10.078;2022-09-21T18:03:22;24.90;49.70
5384;DHT22;2715;53.448;10.078;2022-09-21T18:05:49;24.80;49.60
5384;DHT22;2715;53.448;10.078;2022-09-21T18:08:18;24.80;49.60
5384;DHT22;2715;53.448;10.078;2022-09-21T18:10:47;24.80;49.60
5384;DHT22;2715;53.448;10.078;2022-09-21T18:13:19;24.80;49.70
5384;DHT22;2715;53.448;10.078;2022-09-21T18:15:51;24.80;49.70